Sardinia Vera — IBWV — position and weather

sailwx.info

Track history (hours):
 
Tides and Currents Weather Stations Pressure Air Temp Water Temp Dewpoint Dewpoint Depression Visibility Wind Speed Wind Dir Waves Ship Positions

Sardinia Vera

Last reported at 2016-Jul-25 03:22 UTC. Time now 2016-Jul-25 04:16 UTC.
Position N 43°33' E 007°40'.

Length 121 m; draft 5.6 m.

Type: Passenger vessel. MMSI: 247392000.

Date/timePositionNaut miles runAvg speedWind from/ knotsBaromVisibWave heightAir tempDewpointWater temp
2016-Jul-25 03:22N 43°33' E 007°40'2715.0
2016-Jul-25 01:33N 43°24' E 008°15'2215.4
2016-Jul-25 00:07N 43°16' E 008°43'915.7
2016-Jul-24 23:33N 43°13' E 008°54'1816.0
2016-Jul-24 22:26N 43°06' E 009°17'1314.4
2016-Jul-24 21:33N 42°58' E 009°31'23 3.2
2016-Jul-24 14:34N 43°06' E 010°00'1716.5
2016-Jul-24 13:34N 43°21' E 010°07'1413.8
2016-Jul-24 12:34N 43°33' E 010°17'0 0.5
2016-Jul-24 11:32N 43°33' E 010°18'5 5.3
2016-Jul-24 10:33N 43°29' E 010°13'1616.4
2016-Jul-24 09:33N 43°18' E 009°57'25 4.2
2016-Jul-24 03:33N 43°09' E 009°24'2016.5
2016-Jul-24 02:21N 43°26' E 009°09'1316.6
2016-Jul-24 01:33N 43°37' E 009°00'1716.7
2016-Jul-24 00:33N 43°52' E 008°49'1716.8
2016-Jul-23 23:33N 44°06' E 008°37'1211.9
2016-Jul-23 22:33N 44°16' E 008°27'0 0.0
2016-Jul-23 21:33N 44°16' E 008°27'7 7.5
2016-Jul-23 20:33N 44°11' E 008°35'1716.4
2016-Jul-23 19:32N 43°54' E 008°36'54 4.7
2016-Jul-23 08:07N 43°32' E 007°28'915.3
2016-Jul-23 07:30N 43°39' E 007°19'3 3.5
2016-Jul-23 06:33N 43°42' E 007°17'5612.8
2016-Jul-23 02:08N 43°20' E 008°29'1017.3
2016-Jul-23 01:33N 43°17' E 008°43'1816.7
2016-Jul-23 00:28N 43°10' E 009°05'1516.7
2016-Jul-22 23:33N 43°03' E 009°24'1514.7
2016-Jul-22 22:33N 42°50' E 009°33'3 1.6
2016-Jul-22 20:32N 42°48' E 009°37'1616.8
2016-Jul-22 19:33N 42°58' E 009°55'1716.9
2016-Jul-22 18:33N 43°14' E 010°03'1717.2
2016-Jul-22 17:33N 43°30' E 010°11'6 6.0
2016-Jul-22 16:32N 43°33' E 010°18'1 0.9
2016-Jul-22 15:34N 43°33' E 010°17'1313.3
2016-Jul-22 14:33N 43°21' E 010°08'1616.4
2016-Jul-22 13:34N 43°06' E 009°59'3316.2
2016-Jul-22 11:32N 42°42' E 009°29'11 5.3
2016-Jul-22 09:27N 42°49' E 009°41'1516.6
2016-Jul-22 08:32N 42°59' E 009°57'1616.5
2016-Jul-22 07:33N 43°14' E 010°04'2210.9
2016-Jul-22 05:33N 43°33' E 010°18'0 0.0
2016-Jul-22 04:33N 43°33' E 010°18'3 3.1
2016-Jul-22 03:33N 43°31' E 010°15'1110.8
2016-Jul-22 02:33N 43°22' E 010°06'10 9.8
2016-Jul-22 01:33N 43°17' E 009°55'10 9.7
2016-Jul-22 00:33N 43°10' E 009°45'9 9.0
2016-Jul-21 23:33N 43°03' E 009°39'1211.1
2016-Jul-21 22:31N 42°52' E 009°34'28 3.5
2016-Jul-21 14:33N 43°11' E 010°02'1616.2
2016-Jul-21 13:33N 43°26' E 010°09'9 9.4
2016-Jul-21 12:33N 43°33' E 010°18'0 0.2
2016-Jul-21 11:33N 43°33' E 010°18'1 0.8
2016-Jul-21 10:33N 43°33' E 010°17'1414.4
2016-Jul-21 09:33N 43°23' E 010°03'3416.7
2016-Jul-21 07:32N 42°55' E 009°36'14 4.2
2016-Jul-21 04:18N 42°42' E 009°29'1714.8
2016-Jul-21 03:08N 42°60' E 009°31'915.8
2016-Jul-21 02:33N 43°04' E 009°19'3616.9
2016-Jul-21 00:24N 43°01' E 008°30'1417.0
2016-Jul-20 23:33N 43°01' E 008°10'1616.5
2016-Jul-20 22:34N 43°02' E 007°48'1716.8
2016-Jul-20 21:33N 43°00' E 007°25'1916.5
2016-Jul-20 20:26N 42°59' E 006°60'1516.5
2016-Jul-20 19:33N 42°57' E 006°40'3414.3
2016-Jul-20 17:12N 43°06' E 005°55'1 0.0
2016-Jul-20 06:11N 43°07' E 005°55'1911.5
2016-Jul-20 04:33N 42°55' E 006°16'4615.3
2016-Jul-20 01:33N 42°53' E 007°18'1211.4
2016-Jul-20 00:32N 42°59' E 007°32'2215.2
2016-Jul-19 23:06N 43°01' E 008°02'2315.1
2016-Jul-19 21:33N 43°02' E 008°34'1515.1
2016-Jul-19 20:33N 43°03' E 008°54'1515.2
2016-Jul-19 19:34N 43°04' E 009°15'1313.2
2016-Jul-19 18:33N 42°57' E 009°31'12 1.7
2016-Jul-19 11:21N 43°09' E 009°24'1417.2
2016-Jul-19 10:33N 43°20' E 009°14'1716.7
2016-Jul-19 09:32N 43°35' E 009°03'1616.8
2016-Jul-19 08:33N 43°49' E 008°51'1716.9
2016-Jul-19 07:32N 44°04' E 008°39'12 4.0
2016-Jul-19 04:33N 44°15' E 008°32'1615.6
2016-Jul-19 03:33N 44°01' E 008°41'1515.5
2016-Jul-19 02:33N 43°47' E 008°52'1915.1
2016-Jul-19 01:16N 43°32' E 009°08'1014.5
2016-Jul-19 00:34N 43°25' E 008°57'1514.1
2016-Jul-18 23:29N 43°19' E 009°16'1515.7
2016-Jul-18 22:33N 43°06' E 009°26'1 0.0
2016-Jul-18 11:33N 43°07' E 009°26'3216.1
2016-Jul-18 09:33N 43°34' E 009°03'1616.0
2016-Jul-18 08:33N 43°48' E 008°52'1616.5
2016-Jul-18 07:34N 44°02' E 008°40'1716.6
2016-Jul-18 06:33N 44°16' E 008°28'1 1.0
2016-Jul-18 05:33N 44°16' E 008°27'0 0.0
2016-Jul-18 04:33N 44°16' E 008°27'1212.4
2016-Jul-18 03:33N 44°07' E 008°38'1615.7
2016-Jul-18 02:33N 43°53' E 008°50'1915.2
2016-Jul-18 01:19N 43°37' E 009°03'1215.7
2016-Jul-18 00:32N 43°26' E 009°12'2116.7
2016-Jul-17 23:16N 43°08' E 009°26'1317.3
2016-Jul-17 22:32N 42°56' E 009°32'6 1.2
2016-Jul-17 17:14N 43°01' E 009°37'1116.6
2016-Jul-17 16:34N 43°12' E 009°43'1616.4
2016-Jul-17 15:33N 43°22' E 010°01'1614.6
2016-Jul-17 14:27N 43°33' E 010°17'1 0.8
2016-Jul-17 13:28N 43°33' E 010°18'1 1.5
2016-Jul-17 12:33N 43°32' E 010°17'1515.4
2016-Jul-17 11:33N 43°21' E 010°02'1717.1
2016-Jul-17 10:33N 43°09' E 009°45'27 4.5
2016-Jul-17 04:32N 43°23' E 009°13'1616.3
2016-Jul-17 03:32N 43°37' E 009°02'1616.4
2016-Jul-17 02:33N 43°51' E 008°50'3015.0
2016-Jul-17 00:33N 44°16' E 008°27'0 0.0
2016-Jul-16 23:33N 44°16' E 008°27'9 9.5
2016-Jul-16 22:33N 44°08' E 008°35'1917.0
2016-Jul-16 21:27N 43°50' E 008°39'1617.2
2016-Jul-16 20:33N 43°35' E 008°44'5217.2
2016-Jul-16 17:33N 42°44' E 008°56'5010.1
2016-Jul-16 12:33N 43°14' E 008°01'1717.0
2016-Jul-16 11:34N 43°25' E 007°43'1716.6
2016-Jul-16 10:32N 43°35' E 007°25'8 8.4
2016-Jul-16 09:33N 43°42' E 007°17'2 2.0
2016-Jul-16 08:32N 43°40' E 007°18'2017.4
2016-Jul-16 07:23N 43°32' E 007°44'1517.7
2016-Jul-16 06:32N 43°27' E 008°03'59 7.1
2016-Jul-15 22:13N 43°13' E 009°22'1116.8
2016-Jul-15 21:33N 43°22' E 009°15'1716.9
2016-Jul-15 20:33N 43°37' E 009°03'1716.8
2016-Jul-15 19:34N 43°51' E 008°50'1717.0
2016-Jul-15 18:33N 44°05' E 008°38'1313.1
2016-Jul-15 17:33N 44°16' E 008°27'0 0.0
2016-Jul-15 16:33N 44°16' E 008°27'0 0.1
2016-Jul-15 15:33N 44°16' E 008°27'1514.9
2016-Jul-15 14:33N 44°05' E 008°41'1716.9
2016-Jul-15 13:33N 43°52' E 008°56'2117.1
2016-Jul-15 12:18N 43°34' E 009°11'1516.8
2016-Jul-15 11:25N 43°20' E 009°20'19 2.5
2016-Jul-15 03:32N 43°32' E 008°59'  
Track history (hours):
 
Tides and Currents Weather Stations Pressure Air Temp Water Temp Dewpoint Dewpoint Depression Visibility Wind Speed Wind Dir Waves Ship Positions

Sardinia Vera

Last reported at 2016-Jul-25 03:22 UTC. Time now 2016-Jul-25 04:16 UTC.
Position N 43°33' E 007°40'.

Length 121 m; draft 5.6 m.

Type: Passenger vessel. MMSI: 247392000.

Date/timePositionNaut miles runAvg speedWind from/ knotsBaromVisibWave heightAir tempDewpointWater temp
2016-Jul-25 03:22N 43°33' E 007°40'2715.0
2016-Jul-25 01:33N 43°24' E 008°15'2215.4
2016-Jul-25 00:07N 43°16' E 008°43'915.7
2016-Jul-24 23:33N 43°13' E 008°54'1816.0
2016-Jul-24 22:26N 43°06' E 009°17'1314.4
2016-Jul-24 21:33N 42°58' E 009°31'23 3.2
2016-Jul-24 14:34N 43°06' E 010°00'1716.5
2016-Jul-24 13:34N 43°21' E 010°07'1413.8
2016-Jul-24 12:34N 43°33' E 010°17'0 0.5
2016-Jul-24 11:32N 43°33' E 010°18'5 5.3
2016-Jul-24 10:33N 43°29' E 010°13'1616.4
2016-Jul-24 09:33N 43°18' E 009°57'25 4.2
2016-Jul-24 03:33N 43°09' E 009°24'2016.5
2016-Jul-24 02:21N 43°26' E 009°09'1316.6
2016-Jul-24 01:33N 43°37' E 009°00'1716.7
2016-Jul-24 00:33N 43°52' E 008°49'1716.8
2016-Jul-23 23:33N 44°06' E 008°37'1211.9
2016-Jul-23 22:33N 44°16' E 008°27'0 0.0
2016-Jul-23 21:33N 44°16' E 008°27'7 7.5
2016-Jul-23 20:33N 44°11' E 008°35'1716.4
2016-Jul-23 19:32N 43°54' E 008°36'54 4.7
2016-Jul-23 08:07N 43°32' E 007°28'915.3
2016-Jul-23 07:30N 43°39' E 007°19'3 3.5
2016-Jul-23 06:33N 43°42' E 007°17'5612.8
2016-Jul-23 02:08N 43°20' E 008°29'1017.3
2016-Jul-23 01:33N 43°17' E 008°43'1816.7
2016-Jul-23 00:28N 43°10' E 009°05'1516.7
2016-Jul-22 23:33N 43°03' E 009°24'1514.7
2016-Jul-22 22:33N 42°50' E 009°33'3 1.6
2016-Jul-22 20:32N 42°48' E 009°37'1616.8
2016-Jul-22 19:33N 42°58' E 009°55'1716.9
2016-Jul-22 18:33N 43°14' E 010°03'1717.2
2016-Jul-22 17:33N 43°30' E 010°11'6 6.0
2016-Jul-22 16:32N 43°33' E 010°18'1 0.9
2016-Jul-22 15:34N 43°33' E 010°17'1313.3
2016-Jul-22 14:33N 43°21' E 010°08'1616.4
2016-Jul-22 13:34N 43°06' E 009°59'3316.2
2016-Jul-22 11:32N 42°42' E 009°29'11 5.3
2016-Jul-22 09:27N 42°49' E 009°41'1516.6
2016-Jul-22 08:32N 42°59' E 009°57'1616.5
2016-Jul-22 07:33N 43°14' E 010°04'2210.9
2016-Jul-22 05:33N 43°33' E 010°18'0 0.0
2016-Jul-22 04:33N 43°33' E 010°18'3 3.1
2016-Jul-22 03:33N 43°31' E 010°15'1110.8
2016-Jul-22 02:33N 43°22' E 010°06'10 9.8
2016-Jul-22 01:33N 43°17' E 009°55'10 9.7
2016-Jul-22 00:33N 43°10' E 009°45'9 9.0
2016-Jul-21 23:33N 43°03' E 009°39'1211.1
2016-Jul-21 22:31N 42°52' E 009°34'28 3.5
2016-Jul-21 14:33N 43°11' E 010°02'1616.2
2016-Jul-21 13:33N 43°26' E 010°09'9 9.4
2016-Jul-21 12:33N 43°33' E 010°18'0 0.2
2016-Jul-21 11:33N 43°33' E 010°18'1 0.8
2016-Jul-21 10:33N 43°33' E 010°17'1414.4
2016-Jul-21 09:33N 43°23' E 010°03'3416.7
2016-Jul-21 07:32N 42°55' E 009°36'14 4.2
2016-Jul-21 04:18N 42°42' E 009°29'1714.8
2016-Jul-21 03:08N 42°60' E 009°31'915.8
2016-Jul-21 02:33N 43°04' E 009°19'3616.9
2016-Jul-21 00:24N 43°01' E 008°30'1417.0
2016-Jul-20 23:33N 43°01' E 008°10'1616.5
2016-Jul-20 22:34N 43°02' E 007°48'1716.8
2016-Jul-20 21:33N 43°00' E 007°25'1916.5
2016-Jul-20 20:26N 42°59' E 006°60'1516.5
2016-Jul-20 19:33N 42°57' E 006°40'3414.3
2016-Jul-20 17:12N 43°06' E 005°55'1 0.0
2016-Jul-20 06:11N 43°07' E 005°55'1911.5
2016-Jul-20 04:33N 42°55' E 006°16'4615.3
2016-Jul-20 01:33N 42°53' E 007°18'1211.4
2016-Jul-20 00:32N 42°59' E 007°32'2215.2
2016-Jul-19 23:06N 43°01' E 008°02'2315.1
2016-Jul-19 21:33N 43°02' E 008°34'1515.1
2016-Jul-19 20:33N 43°03' E 008°54'1515.2
2016-Jul-19 19:34N 43°04' E 009°15'1313.2
2016-Jul-19 18:33N 42°57' E 009°31'12 1.7
2016-Jul-19 11:21N 43°09' E 009°24'1417.2
2016-Jul-19 10:33N 43°20' E 009°14'1716.7
2016-Jul-19 09:32N 43°35' E 009°03'1616.8
2016-Jul-19 08:33N 43°49' E 008°51'1716.9
2016-Jul-19 07:32N 44°04' E 008°39'12 4.0
2016-Jul-19 04:33N 44°15' E 008°32'1615.6
2016-Jul-19 03:33N 44°01' E 008°41'1515.5
2016-Jul-19 02:33N 43°47' E 008°52'1915.1
2016-Jul-19 01:16N 43°32' E 009°08'1014.5
2016-Jul-19 00:34N 43°25' E 008°57'1514.1
2016-Jul-18 23:29N 43°19' E 009°16'1515.7
2016-Jul-18 22:33N 43°06' E 009°26'1 0.0
2016-Jul-18 11:33N 43°07' E 009°26'3216.1
2016-Jul-18 09:33N 43°34' E 009°03'1616.0
2016-Jul-18 08:33N 43°48' E 008°52'1616.5
2016-Jul-18 07:34N 44°02' E 008°40'1716.6
2016-Jul-18 06:33N 44°16' E 008°28'1 1.0
2016-Jul-18 05:33N 44°16' E 008°27'0 0.0
2016-Jul-18 04:33N 44°16' E 008°27'1212.4
2016-Jul-18 03:33N 44°07' E 008°38'1615.7
2016-Jul-18 02:33N 43°53' E 008°50'1915.2
2016-Jul-18 01:19N 43°37' E 009°03'1215.7
2016-Jul-18 00:32N 43°26' E 009°12'2116.7
2016-Jul-17 23:16N 43°08' E 009°26'1317.3
2016-Jul-17 22:32N 42°56' E 009°32'6 1.2
2016-Jul-17 17:14N 43°01' E 009°37'1116.6
2016-Jul-17 16:34N 43°12' E 009°43'1616.4
2016-Jul-17 15:33N 43°22' E 010°01'1614.6
2016-Jul-17 14:27N 43°33' E 010°17'1 0.8
2016-Jul-17 13:28N 43°33' E 010°18'1 1.5
2016-Jul-17 12:33N 43°32' E 010°17'1515.4
2016-Jul-17 11:33N 43°21' E 010°02'1717.1
2016-Jul-17 10:33N 43°09' E 009°45'27 4.5
2016-Jul-17 04:32N 43°23' E 009°13'1616.3
2016-Jul-17 03:32N 43°37' E 009°02'1616.4
2016-Jul-17 02:33N 43°51' E 008°50'3015.0
2016-Jul-17 00:33N 44°16' E 008°27'0 0.0
2016-Jul-16 23:33N 44°16' E 008°27'9 9.5
2016-Jul-16 22:33N 44°08' E 008°35'1917.0
2016-Jul-16 21:27N 43°50' E 008°39'1617.2
2016-Jul-16 20:33N 43°35' E 008°44'5217.2
2016-Jul-16 17:33N 42°44' E 008°56'5010.1
2016-Jul-16 12:33N 43°14' E 008°01'1717.0
2016-Jul-16 11:34N 43°25' E 007°43'1716.6
2016-Jul-16 10:32N 43°35' E 007°25'8 8.4
2016-Jul-16 09:33N 43°42' E 007°17'2 2.0
2016-Jul-16 08:32N 43°40' E 007°18'2017.4
2016-Jul-16 07:23N 43°32' E 007°44'1517.7
2016-Jul-16 06:32N 43°27' E 008°03'59 7.1
2016-Jul-15 22:13N 43°13' E 009°22'1116.8
2016-Jul-15 21:33N 43°22' E 009°15'1716.9
2016-Jul-15 20:33N 43°37' E 009°03'1716.8
2016-Jul-15 19:34N 43°51' E 008°50'1717.0
2016-Jul-15 18:33N 44°05' E 008°38'1313.1
2016-Jul-15 17:33N 44°16' E 008°27'0 0.0
2016-Jul-15 16:33N 44°16' E 008°27'0 0.1
2016-Jul-15 15:33N 44°16' E 008°27'1514.9
2016-Jul-15 14:33N 44°05' E 008°41'1716.9
2016-Jul-15 13:33N 43°52' E 008°56'2117.1
2016-Jul-15 12:18N 43°34' E 009°11'1516.8
2016-Jul-15 11:25N 43°20' E 009°20'19 2.5
2016-Jul-15 03:32N 43°32' E 008°59'  

Dump ship's entire track history